Time;durP1;ratioP1;P1;durP2;ratioP2;P2;SDS_P1;SDS_P2;PMS_P1;PMS_P2;Temp;Humidity;BMP_temperature;BMP_pressure;BME280_temperature;BME280_humidity;BME280_pressure;Samples;Min_cycle;Max_cycle;Signal;HPM_P1;HPM_P2
2021/10/06 00:02:12;;;;;;;1999.90;999.90;;;12.50;99.90;;;;;;4975175;28;20237;-65
2021/10/06 00:04:38;;;;;;;1999.90;999.90;;;12.50;99.90;;;;;;4976003;28;20524;-65
2021/10/06 00:07:04;;;;;;;1999.90;999.90;;;12.50;99.90;;;;;;4976536;28;20644;-65
2021/10/06 00:09:29;;;;;;;1999.90;999.90;;;12.50;99.90;;;;;;4975346;28;20421;-65
2021/10/06 00:11:55;;;;;;;1999.90;999.90;;;12.40;99.90;;;;;;4975637;28;20665;-65
2021/10/06 00:14:21;;;;;;;1999.90;999.90;;;12.40;99.90;;;;;;4975484;28;20202;-65
2021/10/06 00:16:47;;;;;;;1999.90;999.90;;;12.30;99.90;;;;;;4975961;28;20218;-65
2021/10/06 00:19:13;;;;;;;1999.90;999.90;;;12.30;99.90;;;;;;4976409;28;20838;-65
2021/10/06 00:21:39;;;;;;;1999.90;999.90;;;12.30;99.90;;;;;;4976106;28;20776;-65
2021/10/06 00:24:05;;;;;;;1999.90;999.90;;;12.30;99.90;;;;;;4974735;28;20413;-65
2021/10/06 00:26:31;;;;;;;1999.90;999.90;;;12.30;99.90;;;;;;4975045;28;20182;-65
2021/10/06 00:28:56;;;;;;;1999.90;999.90;;;12.30;99.90;;;;;;4974806;28;20424;-65
2021/10/06 00:31:22;;;;;;;1999.90;999.90;;;12.30;99.90;;;;;;4975080;28;20186;-65
2021/10/06 00:33:48;;;;;;;1999.90;999.90;;;12.20;99.90;;;;;;4974300;28;20214;-65
2021/10/06 00:36:13;;;;;;;1999.90;999.90;;;12.20;99.90;;;;;;4974716;28;20174;-65
2021/10/06 00:38:39;;;;;;;1999.90;999.90;;;12.20;99.90;;;;;;4974834;28;20221;-65
2021/10/06 00:41:05;;;;;;;1999.90;999.90;;;12.30;99.90;;;;;;4974618;28;20340;-65
2021/10/06 00:43:30;;;;;;;1999.90;999.90;;;12.20;99.90;;;;;;4974098;28;20243;-65
2021/10/06 00:45:56;;;;;;;1999.90;999.90;;;12.20;99.90;;;;;;4974953;28;20180;-65
2021/10/06 00:48:21;;;;;;;1999.90;999.90;;;12.30;99.90;;;;;;4974149;28;20210;-65
2021/10/06 00:50:47;;;;;;;1999.90;999.90;;;12.20;99.90;;;;;;4974825;28;20246;-65
2021/10/06 00:53:13;;;;;;;1999.90;999.90;;;12.20;99.90;;;;;;4974693;28;20189;-65
2021/10/06 00:55:40;;;;;;;1999.90;999.90;;;12.10;99.90;;;;;;4974228;28;20185;-65
2021/10/06 00:58:06;;;;;;;1999.90;999.90;;;12.20;99.90;;;;;;4974163;28;20663;-65
2021/10/06 01:00:32;;;;;;;1999.90;999.90;;;12.20;99.90;;;;;;4974249;28;20401;-65
2021/10/06 01:02:58;;;;;;;1999.90;999.90;;;12.20;99.90;;;;;;4974565;28;20409;-65
2021/10/06 01:05:24;;;;;;;1999.90;999.90;;;12.30;99.90;;;;;;4975010;28;20410;-65
2021/10/06 01:07:50;;;;;;;1999.90;999.90;;;12.30;99.90;;;;;;4975240;28;20433;-65
2021/10/06 01:10:15;;;;;;;1999.90;999.90;;;12.30;99.90;;;;;;4974784;28;20812;-65
2021/10/06 01:12:42;;;;;;;1999.90;999.90;;;12.30;99.90;;;;;;4974080;28;20247;-65
2021/10/06 01:15:11;;;;;;;1999.90;999.90;;;12.30;99.90;;;;;;4974698;28;20238;-65
2021/10/06 01:17:37;;;;;;;1999.90;999.90;;;12.30;99.90;;;;;;4975256;28;20468;-65
2021/10/06 01:20:05;;;;;;;1999.90;999.90;;;12.30;99.90;;;;;;4975121;28;20406;-65
2021/10/06 01:22:30;;;;;;;1999.90;999.90;;;12.30;99.90;;;;;;4975371;28;20434;-65
2021/10/06 01:24:56;;;;;;;1999.90;999.90;;;12.30;99.90;;;;;;4975179;28;20420;-65
2021/10/06 01:27:22;;;;;;;1999.90;999.90;;;12.40;99.90;;;;;;4975098;28;20178;-65
2021/10/06 01:29:47;;;;;;;1999.90;999.90;;;12.40;99.90;;;;;;4974613;28;20167;-65
2021/10/06 01:32:15;;;;;;;1999.90;999.90;;;12.40;99.90;;;;;;4974242;28;20205;-65
2021/10/06 01:34:41;;;;;;;1999.90;999.90;;;12.50;99.90;;;;;;4973978;28;20250;-65
2021/10/06 01:37:07;;;;;;;1999.90;999.90;;;12.50;99.90;;;;;;4974155;28;20452;-65
2021/10/06 01:39:33;;;;;;;1999.90;999.90;;;12.50;99.90;;;;;;4974002;28;20489;-65
2021/10/06 01:41:58;;;;;;;1999.90;999.90;;;12.50;99.90;;;;;;4973989;28;20305;-65
2021/10/06 01:44:24;;;;;;;1999.90;999.90;;;12.50;99.90;;;;;;4974186;28;20172;-65
2021/10/06 01:46:51;;;;;;;1999.90;999.90;;;12.50;99.90;;;;;;4974681;28;20177;-65
2021/10/06 01:49:17;;;;;;;1999.90;999.90;;;12.50;99.90;;;;;;4975279;28;20586;-65
2021/10/06 01:51:43;;;;;;;1999.90;999.90;;;12.50;99.90;;;;;;4975538;28;20434;-65
2021/10/06 01:54:10;;;;;;;1999.90;999.90;;;12.50;99.90;;;;;;4975066;28;20182;-65
2021/10/06 01:56:36;;;;;;;1999.90;999.90;;;12.60;99.90;;;;;;4974545;28;20496;-65
2021/10/06 01:59:03;;;;;;;1999.90;999.90;;;12.60;99.90;;;;;;4976930;28;20440;-65
2021/10/06 02:01:29;;;;;;;1999.90;999.90;;;12.60;99.90;;;;;;4978781;28;20198;-65
2021/10/06 02:03:55;;;;;;;1999.90;999.90;;;12.60;99.90;;;;;;4978471;28;20414;-65
2021/10/06 02:06:20;;;;;;;1999.90;999.90;;;12.60;99.90;;;;;;4978530;28;20628;-65
2021/10/06 02:08:46;;;;;;;1999.90;999.90;;;12.60;99.90;;;;;;4978523;28;20197;-65
2021/10/06 02:11:11;;;;;;;1999.90;999.90;;;12.60;99.90;;;;;;4977736;28;20198;-65
2021/10/06 02:13:37;;;;;;;1999.90;999.90;;;12.60;99.90;;;;;;4977558;28;20170;-65
2021/10/06 02:16:03;;;;;;;1999.90;999.90;;;12.60;99.90;;;;;;4977933;28;20167;-65
2021/10/06 02:18:29;;;;;;;1999.90;999.90;;;12.60;99.90;;;;;;4977734;28;20409;-65
2021/10/06 02:20:55;;;;;;;1999.90;999.90;;;12.50;99.90;;;;;;4977540;28;20915;-64
2021/10/06 02:23:21;;;;;;;1999.90;999.90;;;12.50;99.90;;;;;;4977995;28;20174;-65
2021/10/06 02:25:47;;;;;;;1999.90;999.90;;;12.40;99.90;;;;;;4977544;28;20813;-64
2021/10/06 02:28:12;;;;;;;1999.90;999.90;;;12.40;99.90;;;;;;4978012;28;20323;-65
2021/10/06 02:30:38;;;;;;;1999.90;999.90;;;12.40;99.90;;;;;;4977692;28;20412;-65
2021/10/06 02:33:04;;;;;;;1999.90;999.90;;;12.40;99.90;;;;;;4977682;28;20409;-65
2021/10/06 02:35:29;;;;;;;1999.90;999.90;;;12.40;99.90;;;;;;4977903;28;20647;-65
2021/10/06 02:37:55;;;;;;;1999.90;999.90;;;12.40;99.90;;;;;;4977925;28;20194;-65
2021/10/06 02:40:21;;;;;;;1999.90;999.90;;;12.40;99.90;;;;;;4978841;28;20181;-65
2021/10/06 02:42:49;;;;;;;1999.90;999.90;;;12.40;99.90;;;;;;4978231;28;20217;-65
2021/10/06 02:45:16;;;;;;;1999.90;999.90;;;12.30;99.90;;;;;;4978241;28;20406;-65
2021/10/06 02:47:46;;;;;;;1999.90;999.90;;;12.20;99.90;;;;;;4978616;28;20455;-65
2021/10/06 02:50:13;;;;;;;1999.90;999.90;;;12.20;99.90;;;;;;4978242;28;20410;-65
2021/10/06 02:52:39;;;;;;;1999.90;999.90;;;12.20;99.90;;;;;;4978259;28;20430;-65
2021/10/06 02:55:06;;;;;;;1999.90;999.90;;;12.30;99.90;;;;;;4977719;28;20420;-65
2021/10/06 02:57:33;;;;;;;1999.90;999.90;;;12.30;99.90;;;;;;4978177;28;20202;-65
2021/10/06 02:59:58;;;;;;;1999.90;999.90;;;12.30;99.90;;;;;;4977809;28;20413;-65
2021/10/06 03:02:24;;;;;;;1999.90;999.90;;;12.40;99.90;;;;;;4978102;28;20430;-65
2021/10/06 03:04:49;;;;;;;1999.90;999.90;;;12.40;99.90;;;;;;4978089;28;20166;-65
2021/10/06 03:07:15;;;;;;;1999.90;999.90;;;12.30;99.90;;;;;;4978204;28;20665;-65
2021/10/06 03:09:40;;;;;;;1999.90;999.90;;;12.30;99.90;;;;;;4978152;28;20186;-65
2021/10/06 03:12:06;;;;;;;1999.90;999.90;;;12.30;99.90;;;;;;4978127;28;20331;-65
2021/10/06 03:14:32;;;;;;;1999.90;999.90;;;12.20;99.90;;;;;;4978335;28;20182;-65
2021/10/06 03:16:57;;;;;;;1999.90;999.90;;;12.20;99.90;;;;;;4978734;28;20186;-65
2021/10/06 03:19:23;;;;;;;1999.90;999.90;;;12.10;99.90;;;;;;4978453;28;20400;-65
2021/10/06 03:21:49;;;;;;;1999.90;999.90;;;12.10;99.90;;;;;;4980150;28;20273;-66
2021/10/06 03:24:14;;;;;;;1999.90;999.90;;;12.10;99.90;;;;;;4979584;28;20628;-66
2021/10/06 03:26:40;;;;;;;1999.90;999.90;;;12.00;99.90;;;;;;4980670;28;20185;-66
2021/10/06 03:29:05;;;;;;;1999.90;999.90;;;12.00;99.90;;;;;;4980910;28;20178;-66
2021/10/06 03:31:31;;;;;;;1999.90;999.90;;;11.90;99.90;;;;;;4979951;28;20233;-66
2021/10/06 03:33:58;;;;;;;1999.90;999.90;;;11.90;99.90;;;;;;4980268;28;20229;-66
2021/10/06 03:36:24;;;;;;;1999.90;999.90;;;11.90;99.90;;;;;;4980308;28;20185;-66
2021/10/06 03:38:49;;;;;;;1999.90;999.90;;;11.90;99.90;;;;;;4980251;28;20405;-65
2021/10/06 03:41:15;;;;;;;1999.90;999.90;;;12.00;99.90;;;;;;4980037;28;20950;-66
2021/10/06 03:43:40;;;;;;;1999.90;999.90;;;12.00;99.90;;;;;;4980177;28;20639;-66
2021/10/06 03:46:06;;;;;;;1999.90;999.90;;;12.00;99.90;;;;;;4975919;28;20182;-65
2021/10/06 03:48:32;;;;;;;1999.90;999.90;;;12.00;99.90;;;;;;4974882;28;20185;-65
2021/10/06 03:50:57;;;;;;;1999.90;999.90;;;12.00;99.90;;;;;;4974789;28;20545;-65
2021/10/06 03:53:23;;;;;;;1999.90;999.90;;;12.00;99.90;;;;;;4974557;28;20170;-65
2021/10/06 03:55:48;;;;;;;1999.90;999.90;;;12.00;99.90;;;;;;4974711;28;20217;-65
2021/10/06 03:58:16;;;;;;;1999.90;999.90;;;12.00;99.90;;;;;;4974705;28;20220;-65
2021/10/06 04:00:41;;;;;;;1999.90;999.90;;;12.10;99.90;;;;;;4974588;28;20167;-65
2021/10/06 04:03:11;;;;;;;1999.90;999.90;;;12.10;99.90;;;;;;4974438;28;20418;-65
2021/10/06 04:05:38;;;;;;;1999.90;999.90;;;12.10;99.90;;;;;;4974585;28;20177;-65
2021/10/06 04:08:04;;;;;;;1999.90;999.90;;;12.10;99.90;;;;;;4974262;28;20429;-65
2021/10/06 04:10:30;;;;;;;1999.90;999.90;;;12.20;99.90;;;;;;4974534;28;20498;-65
2021/10/06 04:12:56;;;;;;;1999.90;999.90;;;12.20;99.90;;;;;;4974550;28;20434;-65
2021/10/06 04:15:21;;;;;;;1999.90;999.90;;;12.20;99.90;;;;;;4974202;28;20526;-65
2021/10/06 04:17:47;;;;;;;1999.90;999.90;;;12.20;99.90;;;;;;4974278;28;20457;-65
2021/10/06 04:20:14;;;;;;;1999.90;999.90;;;12.20;99.90;;;;;;4974299;28;20270;-65
2021/10/06 04:22:40;;;;;;;1999.90;999.90;;;12.20;99.90;;;;;;4974015;28;20198;-65
2021/10/06 04:25:07;;;;;;;1999.90;999.90;;;12.30;99.90;;;;;;4973877;28;20442;-66
2021/10/06 04:27:32;;;;;;;1999.90;999.90;;;12.30;99.90;;;;;;4974075;28;20422;-65
2021/10/06 04:29:58;;;;;;;1999.90;999.90;;;12.30;99.90;;;;;;4974191;28;20414;-65
2021/10/06 04:32:23;;;;;;;1999.90;999.90;;;12.30;99.90;;;;;;4973962;28;20273;-65
2021/10/06 04:34:49;;;;;;;1999.90;999.90;;;12.20;99.90;;;;;;4973872;28;20182;-66
2021/10/06 04:37:15;;;;;;;1999.90;999.90;;;12.20;99.90;;;;;;4973864;28;20211;-65
2021/10/06 04:39:40;;;;;;;1999.90;999.90;;;12.30;99.90;;;;;;4975137;28;20178;-66
2021/10/06 04:42:06;;;;;;;1999.90;999.90;;;12.20;99.90;;;;;;4977424;28;20206;-67
2021/10/06 04:44:32;;;;;;;1999.90;999.90;;;12.20;99.90;;;;;;4978033;28;20170;-66
2021/10/06 04:46:57;;;;;;;1999.90;999.90;;;12.20;99.90;;;;;;4977730;28;20479;-66
2021/10/06 04:49:23;;;;;;;1999.90;999.90;;;12.20;99.90;;;;;;4977883;28;20178;-66
2021/10/06 04:51:49;;;;;;;1999.90;999.90;;;12.20;99.90;;;;;;4977532;28;20224;-67
2021/10/06 04:54:15;;;;;;;1999.90;999.90;;;12.20;99.90;;;;;;4975927;28;20269;-65
2021/10/06 04:56:41;;;;;;;1999.90;999.90;;;12.20;99.90;;;;;;4973612;28;20607;-65
2021/10/06 04:59:06;;;;;;;1999.90;999.90;;;12.20;99.90;;;;;;4973648;28;20181;-65
2021/10/06 05:01:32;;;;;;;1999.90;999.90;;;12.20;99.90;;;;;;4973500;28;20204;-65
2021/10/06 05:03:57;;;;;;;1999.90;999.90;;;12.30;99.90;;;;;;4973621;28;20276;-65
2021/10/06 05:06:23;;;;;;;1999.90;999.90;;;12.30;99.90;;;;;;4973518;28;20281;-65
2021/10/06 05:08:49;;;;;;;1999.90;999.90;;;12.30;99.90;;;;;;4973409;28;20177;-65
2021/10/06 05:11:14;;;;;;;1999.90;999.90;;;12.30;99.90;;;;;;4973669;28;20194;-65
2021/10/06 05:13:40;;;;;;;1999.90;999.90;;;12.20;99.90;;;;;;4973310;28;20655;-68
2021/10/06 05:16:06;;;;;;;1999.90;999.90;;;12.30;99.90;;;;;;4973424;28;20174;-65
2021/10/06 05:18:31;;;;;;;1999.90;999.90;;;12.30;99.90;;;;;;4973341;28;20978;-65
2021/10/06 05:20:57;;;;;;;1999.90;999.90;;;12.30;99.90;;;;;;4973265;28;20284;-65
2021/10/06 05:23:23;;;;;;;1999.90;999.90;;;12.30;99.90;;;;;;4973393;28;20177;-65
2021/10/06 05:25:48;;;;;;;1999.90;999.90;;;12.20;99.90;;;;;;4973272;28;20187;-65
2021/10/06 05:28:14;;;;;;;1999.90;999.90;;;12.20;99.90;;;;;;4973239;28;20221;-66
2021/10/06 05:30:40;;;;;;;1999.90;999.90;;;12.30;99.90;;;;;;4973143;28;20587;-65
2021/10/06 05:33:05;;;;;;;1999.90;999.90;;;12.30;99.90;;;;;;4975165;28;20261;-65
2021/10/06 05:35:31;;;;;;;1999.90;999.90;;;12.30;99.90;;;;;;4979560;28;20233;-65
2021/10/06 05:37:57;;;;;;;1999.90;999.90;;;12.30;99.90;;;;;;4979538;28;20189;-65
2021/10/06 05:40:22;;;;;;;1999.90;999.90;;;12.30;99.90;;;;;;4980496;28;20790;-65
2021/10/06 05:42:48;;;;;;;1999.90;999.90;;;12.40;99.90;;;;;;4980164;28;20220;-66
2021/10/06 05:45:13;;;;;;;1999.90;999.90;;;12.40;99.90;;;;;;4980351;28;20618;-65
2021/10/06 05:47:39;;;;;;;1999.90;999.90;;;12.40;99.90;;;;;;4979998;28;20182;-66
2021/10/06 05:50:06;;;;;;;1999.90;999.90;;;12.40;99.90;;;;;;4980388;28;20205;-65
2021/10/06 05:52:34;;;;;;;1999.90;999.90;;;12.40;99.90;;;;;;4979997;28;20202;-65
2021/10/06 05:54:59;;;;;;;1999.90;999.90;;;12.40;99.90;;;;;;4980548;28;20428;-66
2021/10/06 05:57:25;;;;;;;1999.90;999.90;;;12.40;99.90;;;;;;4980446;28;20461;-66
2021/10/06 05:59:53;;;;;;;1999.90;999.90;;;12.40;99.90;;;;;;4980374;28;20413;-66
2021/10/06 06:02:19;;;;;;;1999.90;999.90;;;12.50;99.90;;;;;;4980261;28;20605;-65
2021/10/06 06:04:44;;;;;;;1999.90;999.90;;;12.50;99.90;;;;;;4979788;28;20401;-65
2021/10/06 06:07:10;;;;;;;1999.90;999.90;;;12.60;99.90;;;;;;4980200;28;20417;-66
2021/10/06 06:09:35;;;;;;;1999.90;999.90;;;12.60;99.90;;;;;;4980720;28;20245;-66
2021/10/06 06:12:02;;;;;;;1999.90;999.90;;;12.60;99.90;;;;;;4980194;28;20201;-66
2021/10/06 06:14:29;;;;;;;1999.90;999.90;;;12.60;99.90;;;;;;4980158;28;20214;-66
2021/10/06 06:16:55;;;;;;;1999.90;999.90;;;12.60;99.90;;;;;;4980235;28;20982;-65
2021/10/06 06:19:21;;;;;;;1999.90;999.90;;;12.60;99.90;;;;;;4980262;28;20414;-65
2021/10/06 06:21:46;;;;;;;1999.90;999.90;;;12.70;99.90;;;;;;4979994;28;20253;-66
2021/10/06 06:24:12;;;;;;;1999.90;999.90;;;12.70;99.90;;;;;;4980157;28;20544;-65
2021/10/06 06:26:38;;;;;;;1999.90;999.90;;;12.60;99.90;;;;;;4980138;28;20269;-65
2021/10/06 06:29:03;;;;;;;1999.90;999.90;;;12.70;99.90;;;;;;4981976;28;20907;-66
2021/10/06 06:31:29;;;;;;;1999.90;999.90;;;12.60;99.90;;;;;;4981518;28;20714;-65
2021/10/06 06:33:55;;;;;;;1999.90;999.90;;;12.60;99.90;;;;;;4980680;28;20178;-65
2021/10/06 06:36:21;;;;;;;1999.90;999.90;;;12.50;99.90;;;;;;4980724;28;20796;-66
2021/10/06 06:38:46;;;;;;;1999.90;999.90;;;12.40;99.90;;;;;;4981167;28;20583;-66
2021/10/06 06:41:12;;;;;;;1999.90;999.90;;;12.30;99.90;;;;;;4981591;28;20223;-65
2021/10/06 06:43:37;;;;;;;1999.90;999.90;;;12.20;99.90;;;;;;4981544;28;20241;-66
2021/10/06 06:46:03;;;;;;;1999.90;999.90;;;12.10;99.90;;;;;;4976794;28;20250;-66
2021/10/06 06:48:28;;;;;;;1999.90;999.90;;;12.10;99.90;;;;;;4977731;28;20906;-65
2021/10/06 06:50:54;;;;;;;1999.90;999.90;;;12.00;99.90;;;;;;4977956;28;20254;-66
2021/10/06 06:53:27;;;;;;;1999.90;999.90;;;12.00;99.90;;;;;;4978907;28;20178;-66
2021/10/06 06:55:57;;;;;;;1999.90;999.90;;;11.90;99.90;;;;;;4978631;28;20254;-66
2021/10/06 06:58:23;;;;;;;1999.90;999.90;;;11.80;99.90;;;;;;4978020;28;20449;-65
2021/10/06 07:00:52;;;;;;;1999.90;999.90;;;11.70;99.90;;;;;;4978310;28;20496;-67
2021/10/06 07:03:18;;;;;;;1999.90;999.90;;;11.60;99.90;;;;;;4978044;28;20405;-66
2021/10/06 07:05:44;;;;;;;1999.90;999.90;;;11.60;99.90;;;;;;4978016;28;20405;-66
2021/10/06 07:08:10;;;;;;;1999.90;999.90;;;11.60;99.90;;;;;;4978192;28;20408;-66
2021/10/06 07:10:35;;;;;;;1999.90;999.90;;;11.60;99.90;;;;;;4977812;28;20756;-66
2021/10/06 07:13:02;;;;;;;1999.90;999.90;;;11.60;99.90;;;;;;4977924;28;20191;-65
2021/10/06 07:15:27;;;;;;;1999.90;999.90;;;11.60;99.90;;;;;;4978202;28;20237;-66
2021/10/06 07:17:53;;;;;;;1999.90;999.90;;;11.60;99.90;;;;;;4977801;28;20456;-66
2021/10/06 07:20:19;;;;;;;1999.90;999.90;;;11.60;99.90;;;;;;4978224;28;20184;-66
2021/10/06 07:22:45;;;;;;;1999.90;999.90;;;11.70;99.90;;;;;;4978411;28;20271;-65
2021/10/06 07:25:11;;;;;;;1999.90;999.90;;;11.70;99.90;;;;;;4977570;28;20413;-66
2021/10/06 07:27:37;;;;;;;1999.90;999.90;;;11.80;99.90;;;;;;4977832;28;20468;-65
2021/10/06 07:30:04;;;;;;;1999.90;999.90;;;11.80;99.90;;;;;;4977320;28;20178;-65
2021/10/06 07:32:29;;;;;;;1999.90;999.90;;;11.90;99.90;;;;;;4977604;28;20190;-66
2021/10/06 07:34:55;;;;;;;1999.90;999.90;;;12.00;99.90;;;;;;4977204;28;20406;-66
2021/10/06 07:37:21;;;;;;;1999.90;999.90;;;12.00;99.90;;;;;;4976821;28;20261;-68
2021/10/06 07:39:46;;;;;;;1999.90;999.90;;;12.00;99.90;;;;;;4976188;28;20171;-66
2021/10/06 07:42:12;;;;;;;1999.90;999.90;;;12.00;99.90;;;;;;4976583;28;20684;-66
2021/10/06 07:44:38;;;;;;;1999.90;999.90;;;12.10;99.90;;;;;;4976316;28;20541;-66
2021/10/06 07:47:03;;;;;;;1999.90;999.90;;;12.10;99.90;;;;;;4977414;28;20204;-66
2021/10/06 07:49:29;;;;;;;1999.90;999.90;;;12.10;99.90;;;;;;4977385;28;20173;-66
2021/10/06 07:51:55;;;;;;;1999.90;999.90;;;12.10;99.90;;;;;;4978250;28;20675;-66
2021/10/06 07:54:20;;;;;;;1999.90;999.90;;;12.10;99.90;;;;;;4978619;28;20429;-66
2021/10/06 07:56:46;;;;;;;1999.90;999.90;;;12.10;99.90;;;;;;4978105;28;20272;-66
2021/10/06 07:59:12;;;;;;;1999.90;999.90;;;12.10;99.90;;;;;;4978328;28;20197;-66
2021/10/06 08:01:37;;;;;;;1999.90;999.90;;;12.20;99.90;;;;;;4976830;28;20463;-66
2021/10/06 08:04:03;;;;;;;1999.90;999.90;;;12.20;99.90;;;;;;4977894;28;20178;-66
2021/10/06 08:06:29;;;;;;;1999.90;999.90;;;12.20;99.90;;;;;;4978138;28;20176;-66
2021/10/06 08:08:54;;;;;;;1999.90;999.90;;;12.20;99.90;;;;;;4977086;28;20178;-66
2021/10/06 08:11:20;;;;;;;1999.90;999.90;;;12.30;99.90;;;;;;4976067;28;20189;-66
2021/10/06 08:13:46;;;;;;;1999.90;999.90;;;12.40;99.90;;;;;;4974893;28;20178;-66
2021/10/06 08:16:11;;;;;;;1999.90;999.90;;;12.30;99.90;;;;;;4974848;28;20177;-66
2021/10/06 08:18:37;;;;;;;1999.90;999.90;;;12.30;99.90;;;;;;4975226;28;20566;-66
2021/10/06 08:21:02;;;;;;;1999.90;999.90;;;12.40;99.90;;;;;;4974960;28;20273;-66
2021/10/06 08:23:30;;;;;;;1999.90;999.90;;;12.40;99.90;;;;;;4975015;28;20178;-66
2021/10/06 08:25:56;;;;;;;1999.90;999.90;;;12.50;99.90;;;;;;4974964;28;20196;-66
2021/10/06 08:28:21;;;;;;;1999.90;999.90;;;12.60;99.90;;;;;;4975111;28;20429;-66
2021/10/06 08:30:48;;;;;;;1999.90;999.90;;;12.60;99.90;;;;;;4974683;28;20205;-66
2021/10/06 08:33:13;;;;;;;1999.90;999.90;;;12.70;99.90;;;;;;4974967;28;20178;-65
2021/10/06 08:35:39;;;;;;;1999.90;999.90;;;12.80;99.90;;;;;;4975010;28;20414;-66
2021/10/06 08:38:06;;;;;;;1999.90;999.90;;;12.80;99.90;;;;;;4975541;28;20202;-66
2021/10/06 08:40:33;;;;;;;1999.90;999.90;;;12.90;99.90;;;;;;4975208;28;20418;-66
2021/10/06 08:43:01;;;;;;;1999.90;999.90;;;13.00;99.90;;;;;;4975193;28;20413;-65
2021/10/06 08:45:27;;;;;;;1999.90;999.90;;;13.10;99.90;;;;;;4974663;28;20496;-66
2021/10/06 08:47:54;;;;;;;1999.90;999.90;;;13.20;99.90;;;;;;4975942;28;20445;-66
2021/10/06 08:50:19;;;;;;;1999.90;999.90;;;13.10;99.90;;;;;;4976081;28;20183;-65
2021/10/06 08:52:49;;;;;;;1999.90;999.90;;;13.10;99.90;;;;;;4974862;28;20488;-66
2021/10/06 08:55:17;;;;;;;1999.90;999.90;;;13.10;99.90;;;;;;4974965;28;20182;-66
2021/10/06 08:57:43;;;;;;;1999.90;999.90;;;13.00;99.90;;;;;;4975283;28;20457;-66
2021/10/06 09:00:10;;;;;;;1999.90;999.90;;;12.90;99.90;;;;;;4974534;28;20418;-66
2021/10/06 09:02:38;;;;;;;1999.90;999.90;;;12.80;99.90;;;;;;4974851;28;20182;-66
2021/10/06 09:05:04;;;;;;;1999.90;999.90;;;12.80;99.90;;;;;;4974492;28;20810;-66
2021/10/06 09:07:30;;;;;;;1999.90;999.90;;;12.70;99.90;;;;;;4974627;28;20409;-65
2021/10/06 09:09:55;;;;;;;1999.90;999.90;;;12.70;99.90;;;;;;4974254;28;20499;-66
2021/10/06 09:12:23;;;;;;;1999.90;999.90;;;12.70;99.90;;;;;;4974005;28;20268;-66
2021/10/06 09:14:48;;;;;;;1999.90;999.90;;;12.80;99.90;;;;;;4974786;28;20670;-65
2021/10/06 09:17:16;;;;;;;1999.90;999.90;;;12.90;99.90;;;;;;4974484;28;20548;-66
2021/10/06 09:19:53;;;;;;;1999.90;999.90;;;12.90;99.90;;;;;;4974570;28;20174;-66
2021/10/06 09:22:26;;;;;;;1999.90;999.90;;;12.90;99.90;;;;;;4974851;28;20442;-66
2021/10/06 09:24:56;;;;;;;1999.90;999.90;;;12.90;99.90;;;;;;4973612;28;20445;-66
2021/10/06 09:27:26;;;;;;;1999.90;999.90;;;12.70;99.90;;;;;;4974166;28;20417;-66
2021/10/06 09:29:54;;;;;;;1999.90;999.90;;;12.70;99.90;;;;;;4974682;28;20852;-65
2021/10/06 09:32:38;;;;;;;1999.90;999.90;;;12.60;99.90;;;;;;4975054;28;20796;-67
2021/10/06 09:35:16;;;;;;;1999.90;999.90;;;12.60;99.90;;;;;;4974461;28;20761;-67
2021/10/06 09:37:48;;;;;;;1999.90;999.90;;;12.70;99.90;;;;;;4974291;28;20839;-67
2021/10/06 09:40:17;;;;;;;1999.90;999.90;;;12.70;99.90;;;;;;4974385;28;20752;-67
2021/10/06 09:42:51;;;;;;;1999.90;999.90;;;12.80;99.90;;;;;;4973809;28;20948;-67
2021/10/06 09:45:37;;;;;;;1999.90;999.90;;;12.80;99.90;;;;;;5000935;23;20581;-66
2021/10/06 09:48:11;;;;;;;1999.90;999.90;;;12.80;99.90;;;;;;5011787;28;20967;-66
2021/10/06 09:50:38;;;;;;;1999.90;999.90;;;12.90;99.90;;;;;;5012176;28;20885;-67
2021/10/06 09:53:07;;;;;;;1999.90;999.90;;;13.00;99.90;;;;;;5006838;28;20808;-64
2021/10/06 09:55:35;;;;;;;1999.90;999.90;;;13.00;99.90;;;;;;5010616;28;20424;-65
2021/10/06 09:58:03;;;;;;;1999.90;999.90;;;13.10;99.90;;;;;;5011242;28;20459;-66
2021/10/06 10:00:29;;;;;;;1999.90;999.90;;;13.20;99.90;;;;;;5010882;28;20404;-65
2021/10/06 10:02:56;;;;;;;1999.90;999.90;;;13.30;99.90;;;;;;5011055;28;20483;-65
2021/10/06 10:05:22;;;;;;;1999.90;999.90;;;13.30;99.90;;;;;;5010983;28;20978;-64
2021/10/06 10:07:50;;;;;;;1999.90;999.90;;;13.30;99.90;;;;;;5011131;28;20412;-65
2021/10/06 10:10:16;;;;;;;1999.90;999.90;;;13.20;99.90;;;;;;5011242;28;20169;-65
2021/10/06 10:12:42;;;;;;;1999.90;999.90;;;13.00;99.90;;;;;;5011085;28;20407;-65
2021/10/06 10:15:09;;;;;;;1999.90;999.90;;;12.90;99.90;;;;;;5010503;28;20428;-65
2021/10/06 10:17:35;;;;;;;1999.90;999.90;;;12.80;99.90;;;;;;5011141;28;20432;-65
2021/10/06 10:20:08;;;;;;;1999.90;999.90;;;12.80;99.90;;;;;;5013296;28;20406;-65
2021/10/06 10:22:40;;;;;;;1999.90;999.90;;;12.70;99.90;;;;;;5014386;28;20177;-65
2021/10/06 10:25:22;;;;;;;1999.90;999.90;;;12.70;99.90;;;;;;5013256;28;20921;-64
2021/10/06 10:28:24;;;;;;;1999.90;999.90;;;12.60;99.90;;;;;;5014756;28;20457;-65
2021/10/06 10:30:56;;;;;;;1999.90;999.90;;;12.60;99.90;;;;;;5014360;28;20418;-65
2021/10/06 10:33:39;;;;;;;1999.90;999.90;;;12.60;99.90;;;;;;5013472;28;20417;-65
2021/10/06 10:36:39;;;;;;;1999.90;999.90;;;12.60;99.90;;;;;;5013967;28;20493;-65
2021/10/06 10:39:26;;;;;;;1999.90;999.90;;;12.60;99.90;;;;;;5013683;28;20412;-65
2021/10/06 10:41:56;;;;;;;1999.90;999.90;;;12.60;99.90;;;;;;5003269;28;20510;-65
2021/10/06 10:44:33;;;;;;;1999.90;999.90;;;12.70;99.90;;;;;;5012871;28;20391;-64
2021/10/06 10:47:03;;;;;;;1999.90;999.90;;;12.80;99.90;;;;;;5014015;28;20414;-65
2021/10/06 10:49:54;;;;;;;1999.90;999.90;;;12.80;99.90;;;;;;5013786;28;20403;-65
2021/10/06 10:52:49;;;;;;;1999.90;999.90;;;12.80;99.90;;;;;;5013785;28;20396;-65
2021/10/06 10:55:16;;;;;;;1999.90;999.90;;;12.80;99.90;;;;;;5013839;28;20415;-65
2021/10/06 10:57:41;;;;;;;1999.90;999.90;;;12.80;99.90;;;;;;5014273;28;20456;-64
2021/10/06 11:00:31;;;;;;;1999.90;999.90;;;12.90;99.90;;;;;;5013491;28;20408;-65
2021/10/06 11:03:01;;;;;;;1999.90;999.90;;;13.20;99.90;;;;;;5013880;28;20589;-65
2021/10/06 11:05:47;;;;;;;1999.90;999.90;;;13.30;99.90;;;;;;5013491;28;20424;-62
2021/10/06 11:08:28;;;;;;;1999.90;999.90;;;13.40;99.90;;;;;;5014108;28;20404;-65
2021/10/06 11:11:12;;;;;;;1999.90;999.90;;;13.50;99.90;;;;;;5013956;28;20404;-65
2021/10/06 11:13:39;;;;;;;1999.90;999.90;;;13.30;99.90;;;;;;5013322;28;20432;-65
2021/10/06 11:16:05;;;;;;;1999.90;999.90;;;13.20;99.90;;;;;;5013630;28;20428;-65
2021/10/06 11:18:52;;;;;;;1999.90;999.90;;;13.20;99.90;;;;;;5013656;28;20813;-65
2021/10/06 11:21:39;;;;;;;1999.90;999.90;;;13.20;99.90;;;;;;5012950;28;20400;-65
2021/10/06 11:24:22;;;;;;;1999.90;999.90;;;13.20;99.90;;;;;;5013593;28;20776;-65
2021/10/06 11:26:56;;;;;;;1999.90;999.90;;;13.30;99.90;;;;;;5013716;28;20901;-66
2021/10/06 11:29:22;;;;;;;1999.90;999.90;;;13.30;99.90;;;;;;5013114;28;20434;-65
2021/10/06 11:31:48;;;;;;;1999.90;999.90;;;13.20;99.90;;;;;;5012910;28;20414;-65
2021/10/06 11:34:19;;;;;;;1999.90;999.90;;;13.10;99.90;;;;;;5012978;28;20424;-66
2021/10/06 11:36:50;;;;;;;1999.90;999.90;;;13.10;99.90;;;;;;5013004;28;20197;-65
2021/10/06 11:39:16;;;;;;;1999.90;999.90;;;13.20;99.90;;;;;;5013454;28;20412;-65
2021/10/06 11:41:45;;;;;;;1999.90;999.90;;;13.20;99.90;;;;;;5013347;28;20411;-65
2021/10/06 11:44:15;;;;;;;1999.90;999.90;;;13.20;99.90;;;;;;5012662;28;20409;-65
2021/10/06 11:46:41;;;;;;;1999.90;999.90;;;13.10;99.90;;;;;;5012931;28;20436;-65
2021/10/06 11:49:08;;;;;;;1999.90;999.90;;;13.10;99.90;;;;;;5013227;28;20400;-65
2021/10/06 11:51:46;;;;;;;1999.90;999.90;;;13.00;99.90;;;;;;5012749;28;20408;-65
2021/10/06 11:54:14;;;;;;;1999.90;999.90;;;12.90;99.90;;;;;;5012970;28;20388;-66
2021/10/06 11:56:40;;;;;;;1999.90;999.90;;;13.00;99.90;;;;;;5012958;28;20420;-65
2021/10/06 11:59:11;;;;;;;1999.90;999.90;;;13.00;99.90;;;;;;5012610;28;20850;-65
2021/10/06 12:01:38;;;;;;;1999.90;999.90;;;13.00;99.90;;;;;;5012658;28;20401;-66